Time;durP1;ratioP1;P1;durP2;ratioP2;P2;SDS_P1;SDS_P2;PMS_P1;PMS_P2;Temp;Humidity;BMP_temperature;BMP_pressure;BME280_temperature;BME280_humidity;BME280_pressure;Samples;Min_cycle;Max_cycle;Signal;HPM_P1;HPM_P2
2022/01/09 00:01:00;;;;;;;5.55;2.40;;;27.10;66.00;;;;;;4152321;28;20076;-44
2022/01/09 00:03:02;;;;;;;5.30;2.30;;;27.20;66.00;;;;;;4145040;28;20048;-53
2022/01/09 00:05:04;;;;;;;7.13;2.20;;;27.20;66.00;;;;;;4142986;28;20060;-45
2022/01/09 00:07:07;;;;;;;3.35;1.77;;;27.20;66.10;;;;;;4151489;28;20101;-43
2022/01/09 00:09:09;;;;;;;3.45;2.15;;;27.20;66.10;;;;;;4144142;28;21015;-42
2022/01/09 00:11:13;;;;;;;4.32;2.10;;;27.30;66.10;;;;;;4140999;28;21271;-46
2022/01/09 00:13:15;;;;;;;6.57;2.30;;;27.20;66.20;;;;;;4145389;28;20032;-45
2022/01/09 00:15:17;;;;;;;3.92;2.20;;;27.30;66.20;;;;;;4150779;28;20062;-42
2022/01/09 00:17:20;;;;;;;5.35;2.60;;;27.30;66.50;;;;;;4142899;28;20059;-43
2022/01/09 00:19:22;;;;;;;7.25;2.00;;;27.30;66.40;;;;;;4139127;28;20051;-45
2022/01/09 00:21:24;;;;;;;4.28;2.08;;;27.30;66.50;;;;;;4152694;28;20048;-44
2022/01/09 00:23:26;;;;;;;4.57;2.53;;;27.30;66.50;;;;;;4139804;28;21843;-45
2022/01/09 00:25:28;;;;;;;5.75;2.10;;;27.30;66.50;;;;;;4140861;28;20163;-45
2022/01/09 00:27:31;;;;;;;5.07;2.47;;;27.30;66.50;;;;;;4150100;28;20033;-43
2022/01/09 00:29:33;;;;;;;7.15;1.92;;;27.30;66.70;;;;;;4151151;28;20131;-44
2022/01/09 00:31:35;;;;;;;3.83;2.40;;;27.30;66.50;;;;;;4140986;28;20044;-42
2022/01/09 00:33:38;;;;;;;4.20;2.37;;;27.30;66.60;;;;;;4144701;28;20071;-43
2022/01/09 00:35:40;;;;;;;5.43;2.00;;;27.30;66.60;;;;;;4152377;28;20052;-45
2022/01/09 00:37:42;;;;;;;3.53;2.10;;;27.30;66.80;;;;;;4140758;28;20292;-44
2022/01/09 00:39:44;;;;;;;4.57;2.13;;;27.30;66.80;;;;;;4141696;28;20040;-44
2022/01/09 00:41:47;;;;;;;7.03;2.15;;;27.40;67.00;;;;;;4151929;28;20499;-44
2022/01/09 00:43:50;;;;;;;7.88;2.53;;;27.40;67.00;;;;;;4145226;28;20067;-43
2022/01/09 00:45:51;;;;;;;;;;;27.40;67.10;;;;;;4141148;28;20079;-43
2022/01/09 00:47:56;;;;;;;5.65;2.17;;;27.40;67.10;;;;;;4150611;28;20326;-43
2022/01/09 00:49:59;;;;;;;4.25;2.40;;;27.50;67.20;;;;;;4154756;28;20052;-43
2022/01/09 00:52:01;;;;;;;6.43;2.17;;;27.50;67.20;;;;;;4144370;28;20063;-43
2022/01/09 00:54:03;;;;;;;4.67;1.90;;;27.50;67.20;;;;;;4142201;28;20541;-44
2022/01/09 00:56:05;;;;;;;4.43;2.10;;;27.50;67.20;;;;;;4150372;28;20523;-45
2022/01/09 00:58:08;;;;;;;7.32;2.08;;;27.50;67.20;;;;;;4144015;28;20040;-45
2022/01/09 01:02:12;;;;;;;3.97;2.20;;;27.50;66.60;;;;;;4163504;27;21354;-46
2022/01/09 01:04:14;;;;;;;2.30;1.70;;;27.60;67.20;;;;;;4173523;28;20044;-44
2022/01/09 01:06:16;;;;;;;5.45;2.47;;;27.60;67.10;;;;;;4170898;28;21180;-47
2022/01/09 01:08:19;;;;;;;5.47;2.00;;;27.60;67.00;;;;;;4174901;28;20089;-46
2022/01/09 01:10:21;;;;;;;3.90;1.95;;;27.70;67.00;;;;;;4180193;28;20063;-44
2022/01/09 01:12:27;;;;;;;5.03;2.20;;;27.70;67.10;;;;;;4172474;28;20039;-45
2022/01/09 01:14:31;;;;;;;6.53;2.47;;;27.70;67.10;;;;;;4171879;28;20036;-47
2022/01/09 01:16:34;;;;;;;6.15;2.05;;;27.70;66.80;;;;;;4176532;28;20040;-46
2022/01/09 01:18:36;;;;;;;8.88;2.45;;;27.70;66.80;;;;;;4183873;28;20147;-46
2022/01/09 01:20:38;;;;;;;6.60;2.63;;;27.70;66.80;;;;;;4172895;28;20120;-44
2022/01/09 01:22:41;;;;;;;12.80;2.40;;;27.70;66.80;;;;;;4172695;28;20181;-51
2022/01/09 01:24:45;;;;;;;5.45;2.30;;;27.80;66.90;;;;;;4183522;28;20032;-46
2022/01/09 01:26:48;;;;;;;5.65;2.17;;;27.80;66.90;;;;;;4179135;28;21193;-46
2022/01/09 01:28:50;;;;;;;3.70;2.10;;;27.80;66.90;;;;;;4173078;28;20040;-46
2022/01/09 01:30:52;;;;;;;6.95;2.50;;;27.80;66.80;;;;;;4176118;28;20104;-45
2022/01/09 01:32:54;;;;;;;3.47;2.20;;;27.80;66.80;;;;;;4182375;28;20035;-45
2022/01/09 01:34:56;;;;;;;2.93;1.90;;;27.80;66.80;;;;;;4173524;28;20339;-45
2022/01/09 01:36:58;;;;;;;3.97;1.93;;;27.80;66.90;;;;;;4172688;28;23898;-43
2022/01/09 01:39:01;;;;;;;4.78;2.33;;;27.80;66.90;;;;;;4184529;28;20291;-44
2022/01/09 01:41:03;;;;;;;5.35;2.22;;;27.80;66.90;;;;;;4173906;28;21027;-51
2022/01/09 01:43:05;;;;;;;4.43;2.03;;;27.80;67.00;;;;;;4174610;28;20130;-44
2022/01/09 01:45:08;;;;;;;6.45;2.53;;;27.90;67.70;;;;;;4178940;28;20106;-49
2022/01/09 01:47:10;;;;;;;10.38;2.30;;;27.90;67.00;;;;;;4182126;28;20040;-47
2022/01/09 01:49:13;;;;;;;3.70;1.73;;;27.90;67.10;;;;;;4170643;28;20122;-49
2022/01/09 01:51:15;;;;;;;7.55;2.42;;;27.90;67.10;;;;;;4171609;28;20296;-47
2022/01/09 01:53:20;;;;;;;5.50;2.27;;;27.90;66.80;;;;;;4181089;28;20039;-48
2022/01/09 01:55:22;;;;;;;5.38;2.15;;;27.90;66.70;;;;;;4175907;28;20039;-48
2022/01/09 01:57:24;;;;;;;4.93;2.40;;;27.90;66.50;;;;;;4170227;28;20040;-46
2022/01/09 01:59:26;;;;;;;4.23;2.30;;;27.90;66.50;;;;;;4177370;28;20035;-44
2022/01/09 02:01:28;;;;;;;3.83;2.17;;;27.90;66.30;;;;;;4179360;28;20303;-46
2022/01/09 02:03:30;;;;;;;4.38;2.35;;;27.90;66.20;;;;;;4170364;28;20318;-50
2022/01/09 02:05:33;;;;;;;6.63;2.50;;;27.90;66.40;;;;;;4171164;28;20213;-45
2022/01/09 02:07:37;;;;;;;5.30;2.03;;;27.90;66.60;;;;;;4175959;28;20036;-44
2022/01/09 02:09:39;;;;;;;5.13;2.30;;;27.90;66.50;;;;;;4170078;28;20158;-47
2022/01/09 02:11:41;;;;;;;2.73;1.97;;;27.90;66.60;;;;;;4166899;28;20605;-45
2022/01/09 02:13:45;;;;;;;4.85;2.20;;;27.90;66.70;;;;;;4169064;28;20036;-45
2022/01/09 02:15:48;;;;;;;4.85;2.25;;;27.90;66.70;;;;;;4168471;28;21255;-45
2022/01/09 02:17:50;;;;;;;3.60;2.20;;;27.90;66.70;;;;;;4161831;28;20069;-48
2022/01/09 02:19:56;;;;;;;4.70;2.10;;;27.90;66.70;;;;;;4158649;28;20095;-44
2022/01/09 02:21:59;;;;;;;4.75;2.20;;;27.90;66.80;;;;;;4170646;28;20111;-50
2022/01/09 02:24:01;;;;;;;5.85;2.20;;;27.90;66.70;;;;;;4164304;28;20032;-44
2022/01/09 02:26:03;;;;;;;3.67;2.13;;;27.90;66.90;;;;;;4161286;28;20047;-44
2022/01/09 02:28:06;;;;;;;3.92;2.25;;;27.90;67.10;;;;;;4162942;28;20032;-45
2022/01/09 02:30:10;;;;;;;3.53;1.90;;;28.00;67.20;;;;;;4170922;28;20036;-45
2022/01/09 02:32:12;;;;;;;4.18;1.98;;;28.00;67.30;;;;;;4159672;28;20036;-46
2022/01/09 02:34:14;;;;;;;3.67;1.63;;;28.00;67.40;;;;;;4160497;28;20117;-45
2022/01/09 02:36:17;;;;;;;4.50;2.28;;;28.00;67.40;;;;;;4166467;28;20248;-46
2022/01/09 02:38:20;;;;;;;4.10;2.00;;;28.00;67.50;;;;;;4165309;28;21216;-44
2022/01/09 02:40:23;;;;;;;4.32;2.40;;;28.00;67.70;;;;;;4160632;28;20591;-45
2022/01/09 02:42:29;;;;;;;3.53;2.08;;;28.00;67.60;;;;;;4159400;28;20285;-44
2022/01/09 02:44:31;;;;;;;4.38;2.10;;;28.00;67.70;;;;;;4171460;28;20028;-43
2022/01/09 02:48:39;;;;;;;6.65;2.20;;;28.10;68.40;;;;;;4158804;28;20042;-44
2022/01/09 02:50:51;;;;;;;;;;;28.10;67.60;;;;;;4159893;28;20035;-49
2022/01/09 02:53:14;;;;;;;5.15;2.40;;;28.10;67.30;;;;;;4159401;28;19926;-45
2022/01/09 02:55:16;;;;;;;6.82;2.58;;;28.00;66.90;;;;;;4158428;28;20158;-48
2022/01/09 02:57:18;;;;;;;6.05;2.55;;;28.00;66.70;;;;;;4155132;28;20040;-44
2022/01/09 02:59:20;;;;;;;4.70;2.50;;;28.00;66.70;;;;;;4168487;28;20131;-46
2022/01/09 03:01:22;;;;;;;4.50;2.28;;;28.00;66.70;;;;;;4157098;28;20211;-45
2022/01/09 03:03:24;;;;;;;4.57;2.72;;;27.90;66.70;;;;;;4158000;28;20538;-45
2022/01/09 03:05:28;;;;;;;6.82;2.83;;;27.90;66.50;;;;;;4166720;28;20036;-48
2022/01/09 03:07:30;;;;;;;18.17;3.78;;;27.90;66.50;;;;;;4164968;28;20036;-45
2022/01/09 03:09:32;;;;;;;8.65;3.65;;;27.90;66.00;;;;;;4159095;28;20070;-44
2022/01/09 03:11:36;;;;;;;7.47;3.78;;;27.90;65.70;;;;;;4161737;28;20039;-44
2022/01/09 03:13:38;;;;;;;13.98;4.20;;;27.90;65.70;;;;;;4169473;28;20024;-44
2022/01/09 03:15:40;;;;;;;11.27;4.35;;;27.90;65.60;;;;;;4161477;28;20069;-47
2022/01/09 03:17:43;;;;;;;10.65;4.28;;;27.90;65.80;;;;;;4159883;28;20040;-44
2022/01/09 03:19:45;;;;;;;12.18;4.22;;;27.80;66.00;;;;;;4169381;28;20135;-44
2022/01/09 03:21:47;;;;;;;9.57;4.10;;;27.80;66.20;;;;;;4162389;28;20094;-46
2022/01/09 03:23:49;;;;;;;12.43;4.37;;;27.80;66.40;;;;;;4159872;28;20065;-46
2022/01/09 03:25:51;;;;;;;17.40;4.85;;;27.80;66.50;;;;;;4161519;28;20296;-50
2022/01/09 03:27:55;;;;;;;12.57;4.83;;;27.80;66.60;;;;;;4170304;28;20032;-45
2022/01/09 03:29:57;;;;;;;10.60;4.82;;;27.80;66.80;;;;;;4160628;28;20540;-45
2022/01/09 03:32:00;;;;;;;7.33;4.50;;;27.80;66.80;;;;;;4159469;28;20044;-46
2022/01/09 03:34:02;;;;;;;15.52;5.47;;;27.80;66.90;;;;;;4171277;28;20706;-43
2022/01/09 03:36:04;;;;;;;9.40;4.28;;;27.80;67.00;;;;;;4163522;28;20047;-42
2022/01/09 03:38:06;;;;;;;9.73;4.80;;;27.80;67.00;;;;;;4157838;28;20038;-47
2022/01/09 03:40:13;;;;;;;10.60;4.93;;;27.80;67.00;;;;;;4169298;28;20542;-47
2022/01/09 03:42:15;;;;;;;9.35;4.55;;;27.80;67.00;;;;;;4177035;28;20405;-45
2022/01/09 03:44:17;;;;;;;13.77;5.05;;;27.80;67.00;;;;;;4165246;28;20169;-49
2022/01/09 03:46:20;;;;;;;12.57;4.45;;;27.80;67.00;;;;;;4168277;28;20099;-44
2022/01/09 03:48:22;;;;;;;11.50;4.53;;;27.90;67.10;;;;;;4171693;28;20035;-45
2022/01/09 03:50:25;;;;;;;12.05;4.80;;;27.90;67.20;;;;;;4173796;28;20724;-48
2022/01/09 03:52:27;;;;;;;11.80;5.10;;;27.90;67.20;;;;;;4157910;28;20032;-46
2022/01/09 03:54:30;;;;;;;9.20;4.30;;;27.90;67.10;;;;;;4159315;28;20047;-44
2022/01/09 03:56:32;;;;;;;8.93;4.37;;;27.90;66.90;;;;;;4165341;28;20827;-47
2022/01/09 03:58:36;;;;;;;13.73;4.55;;;27.90;66.80;;;;;;4158488;28;20051;-44
2022/01/09 04:02:12;;;;;;;11.40;4.93;;;27.90;66.10;;;;;;4155227;27;20506;-47
2022/01/09 04:04:14;;;;;;;13.23;4.63;;;27.90;66.60;;;;;;4164875;28;20059;-49
2022/01/09 04:06:17;;;;;;;9.93;4.22;;;27.90;66.50;;;;;;4159636;28;20067;-44
2022/01/09 04:08:19;;;;;;;12.48;4.15;;;27.90;66.60;;;;;;4155922;28;21364;-48
2022/01/09 04:10:25;;;;;;;10.95;4.43;;;27.90;66.60;;;;;;4166135;28;20060;-45
2022/01/09 04:13:09;;;;;;;11.23;4.07;;;28.00;66.60;;;;;;4160733;28;20044;-46
2022/01/09 04:14:52;;;;;;;12.60;3.72;;;28.00;66.50;;;;;;4149923;28;20179;-44
2022/01/09 04:16:54;;;;;;;8.70;3.93;;;28.00;66.50;;;;;;4160142;28;20032;-44
2022/01/09 04:18:56;;;;;;;6.70;3.60;;;28.00;66.50;;;;;;4149061;28;20581;-47
2022/01/09 04:20:59;;;;;;;7.77;3.67;;;28.00;66.40;;;;;;4150531;28;20399;-43
2022/01/09 04:23:01;;;;;;;10.90;3.95;;;28.00;66.50;;;;;;4158773;28;20032;-45
2022/01/09 04:25:04;;;;;;;7.07;3.53;;;28.00;66.10;;;;;;4156703;28;20044;-44
2022/01/09 04:27:07;;;;;;;12.52;4.00;;;28.00;65.90;;;;;;4138022;28;20032;-44
2022/01/09 04:29:09;;;;;;;8.38;3.50;;;28.00;65.70;;;;;;4136324;28;20041;-42
2022/01/09 04:31:12;;;;;;;9.48;3.78;;;28.00;65.90;;;;;;4143707;28;20128;-44
2022/01/09 04:33:14;;;;;;;6.38;3.00;;;28.00;66.20;;;;;;4134290;28;20172;-44
2022/01/09 04:35:17;;;;;;;6.88;3.97;;;28.00;66.20;;;;;;4134078;28;20033;-44
2022/01/09 04:37:19;;;;;;;7.07;3.33;;;28.00;66.40;;;;;;4145225;28;20480;-43
2022/01/09 04:39:21;;;;;;;6.88;3.08;;;28.00;66.30;;;;;;4137513;28;20150;-46
2022/01/09 04:41:23;;;;;;;7.53;3.13;;;28.00;66.30;;;;;;4135513;28;20036;-43
2022/01/09 04:43:27;;;;;;;6.07;3.23;;;28.00;66.40;;;;;;4139958;28;20123;-47
2022/01/09 04:45:30;;;;;;;6.18;3.05;;;28.00;66.40;;;;;;4144028;28;20037;-45
2022/01/09 04:47:32;;;;;;;7.60;3.15;;;28.00;66.30;;;;;;4135999;28;20089;-42
2022/01/09 04:49:40;;;;;;;8.38;3.40;;;28.00;66.20;;;;;;4133685;28;20043;-48
2022/01/09 04:51:42;;;;;;;6.63;3.13;;;28.00;66.20;;;;;;4116890;27;20048;-43
2022/01/09 04:53:44;;;;;;;5.53;3.17;;;28.00;66.30;;;;;;4086460;28;20034;-45
2022/01/09 04:55:50;;;;;;;7.70;3.63;;;28.00;66.40;;;;;;4134627;28;20389;-44
2022/01/09 04:57:52;;;;;;;8.70;2.85;;;28.00;66.30;;;;;;4134458;28;20068;-47
2022/01/09 04:59:54;;;;;;;5.47;2.60;;;28.00;65.70;;;;;;4141204;28;21036;-46
2022/01/09 05:01:56;;;;;;;5.15;2.63;;;28.00;64.90;;;;;;4127961;28;20121;-46
2022/01/09 05:03:58;;;;;;;5.23;2.63;;;27.90;63.30;;;;;;4122682;28;20037;-45
2022/01/09 05:06:01;;;;;;;4.55;2.38;;;27.90;62.30;;;;;;4132624;28;20041;-47
2022/01/09 05:08:03;;;;;;;4.95;2.75;;;27.90;61.20;;;;;;4142858;28;20033;-45
2022/01/09 05:10:07;;;;;;;5.38;2.58;;;27.80;60.50;;;;;;4136375;28;20040;-43
2022/01/09 05:12:09;;;;;;;4.82;2.55;;;27.80;59.60;;;;;;4134120;28;20037;-45
2022/01/09 05:14:11;;;;;;;4.57;2.20;;;27.80;59.40;;;;;;4135294;28;20135;-47
2022/01/09 05:16:14;;;;;;;3.17;1.87;;;27.70;58.80;;;;;;4134197;28;20048;-44
2022/01/09 05:18:16;;;;;;;4.97;2.03;;;27.70;58.40;;;;;;4129553;28;20056;-46
2022/01/09 05:20:18;;;;;;;5.68;2.40;;;27.70;59.10;;;;;;4132757;28;20033;-44
2022/01/09 05:22:20;;;;;;;6.72;1.95;;;27.70;60.30;;;;;;4138540;28;20056;-48
2022/01/09 05:24:23;;;;;;;6.25;2.38;;;27.60;60.40;;;;;;4127187;28;20028;-44
2022/01/09 05:26:25;;;;;;;3.85;2.20;;;27.70;61.00;;;;;;4126173;28;20037;-45
2022/01/09 05:28:27;;;;;;;3.55;2.22;;;27.70;61.40;;;;;;4136186;28;20033;-45
2022/01/09 05:30:29;;;;;;;5.00;2.10;;;27.70;61.70;;;;;;4130447;28;20044;-45
2022/01/09 05:32:31;;;;;;;2.73;2.10;;;27.70;62.10;;;;;;4125493;28;20593;-44
2022/01/09 05:34:33;;;;;;;5.40;2.30;;;27.70;62.40;;;;;;4134580;28;20047;-44
2022/01/09 05:36:36;;;;;;;3.90;2.10;;;27.70;62.70;;;;;;4134278;28;20041;-45
2022/01/09 05:38:38;;;;;;;3.33;1.95;;;27.80;63.00;;;;;;4125848;28;20286;-43
2022/01/09 05:40:40;;;;;;;2.75;1.80;;;27.80;63.20;;;;;;4129586;28;20104;-43
2022/01/09 05:42:42;;;;;;;3.22;2.10;;;27.80;63.50;;;;;;4137766;28;20037;-44
2022/01/09 05:44:44;;;;;;;4.18;2.10;;;27.80;63.70;;;;;;4127785;28;20045;-49
2022/01/09 05:46:46;;;;;;;3.60;2.38;;;27.80;63.90;;;;;;4128388;28;20052;-46
2022/01/09 05:48:48;;;;;;;3.15;2.30;;;27.80;64.20;;;;;;4137586;28;20037;-48
2022/01/09 05:50:50;;;;;;;4.50;2.40;;;27.90;64.50;;;;;;4127875;28;20047;-56
2022/01/09 05:52:53;;;;;;;3.30;2.50;;;27.90;64.50;;;;;;4127882;28;20064;-48
2022/01/09 05:54:55;;;;;;;4.30;2.35;;;27.90;64.50;;;;;;4134667;28;20029;-46
2022/01/09 05:56:57;;;;;;;6.83;2.60;;;27.90;64.70;;;;;;4133683;28;21717;-46
2022/01/09 05:58:59;;;;;;;5.75;2.42;;;27.90;65.00;;;;;;4124487;28;20118;-45
2022/01/09 06:01:02;;;;;;;5.25;2.30;;;27.90;65.10;;;;;;4129717;28;21344;-45
2022/01/09 06:03:05;;;;;;;5.80;2.08;;;27.90;65.20;;;;;;4135557;28;20107;-52
2022/01/09 06:05:07;;;;;;;2.95;2.30;;;28.00;65.50;;;;;;4127865;28;20036;-45
2022/01/09 06:07:09;;;;;;;3.17;1.90;;;28.00;65.50;;;;;;4126528;28;20534;-47
2022/01/09 06:09:12;;;;;;;2.75;2.03;;;28.00;65.60;;;;;;4137649;28;20037;-46
2022/01/09 06:11:14;;;;;;;4.60;2.13;;;28.10;65.90;;;;;;4128383;28;20052;-47
2022/01/09 06:13:16;;;;;;;2.85;1.77;;;28.10;66.00;;;;;;4130204;28;20501;-49
2022/01/09 06:15:19;;;;;;;3.90;2.25;;;28.10;66.20;;;;;;4131040;28;20102;-45
2022/01/09 06:17:21;;;;;;;5.05;1.98;;;28.10;66.40;;;;;;4137362;28;20051;-48
2022/01/09 06:19:23;;;;;;;5.32;2.25;;;28.20;66.50;;;;;;4126813;28;20124;-49
2022/01/09 06:21:28;;;;;;;2.83;1.80;;;28.20;66.40;;;;;;4127588;28;20044;-52
2022/01/09 06:23:30;;;;;;;2.80;1.70;;;28.20;66.50;;;;;;4138002;28;20081;-50
2022/01/09 06:25:32;;;;;;;2.97;1.97;;;28.20;66.60;;;;;;4129580;28;21655;-47
2022/01/09 06:27:35;;;;;;;2.30;1.80;;;28.20;66.50;;;;;;4127041;28;20111;-50
2022/01/09 06:29:37;;;;;;;6.28;2.45;;;28.30;66.60;;;;;;4130709;28;20060;-49
2022/01/09 06:31:39;;;;;;;4.97;2.13;;;28.20;66.50;;;;;;4138443;28;20063;-47
2022/01/09 06:33:41;;;;;;;3.47;2.42;;;28.30;66.70;;;;;;4127795;28;20040;-51
2022/01/09 06:35:44;;;;;;;3.80;2.80;;;28.30;66.90;;;;;;4129172;28;20083;-45
2022/01/09 06:37:46;;;;;;;7.60;4.30;;;28.30;66.70;;;;;;4136862;28;20559;-48
2022/01/09 06:39:48;;;;;;;10.70;4.40;;;28.30;66.80;;;;;;4129141;28;20148;-49
2022/01/09 06:41:51;;;;;;;9.13;3.87;;;28.40;67.20;;;;;;4125508;28;20072;-46
2022/01/09 06:43:53;;;;;;;6.88;3.95;;;28.40;67.40;;;;;;4135019;28;20290;-49
2022/01/09 06:45:55;;;;;;;8.53;4.53;;;28.40;67.40;;;;;;4131119;28;20040;-47
2022/01/09 06:47:58;;;;;;;8.57;4.23;;;28.40;67.50;;;;;;4122180;28;20037;-50
2022/01/09 06:50:00;;;;;;;6.75;4.22;;;28.50;67.70;;;;;;4127395;28;20036;-45
2022/01/09 06:52:03;;;;;;;10.57;4.47;;;28.50;67.80;;;;;;4135359;28;20036;-52
2022/01/09 06:54:05;;;;;;;6.20;3.80;;;28.50;67.60;;;;;;4126702;28;20156;-49
2022/01/09 06:56:07;;;;;;;7.13;3.83;;;28.50;67.50;;;;;;4124295;28;20041;-46
2022/01/09 06:58:10;;;;;;;7.63;4.07;;;28.50;67.50;;;;;;4134805;28;20294;-51
2022/01/09 07:02:12;;;;;;;9.35;3.67;;;28.50;67.00;;;;;;4136304;27;20435;-46
2022/01/09 07:04:14;;;;;;;9.50;3.92;;;28.50;67.60;;;;;;4142383;28;20063;-50
2022/01/09 07:06:16;;;;;;;7.40;3.50;;;28.50;67.60;;;;;;4140682;28;20037;-50
2022/01/09 07:08:18;;;;;;;6.45;3.22;;;28.50;67.50;;;;;;4135304;28;20298;-50
2022/01/09 07:10:21;;;;;;;4.70;3.13;;;28.50;67.40;;;;;;4141039;28;20537;-51
2022/01/09 07:12:23;;;;;;;8.07;3.03;;;28.50;67.40;;;;;;4146631;28;20113;-51
2022/01/09 07:14:25;;;;;;;6.50;3.03;;;28.50;67.50;;;;;;4137871;28;20634;-47
2022/01/09 07:16:27;;;;;;;9.43;2.95;;;28.60;67.50;;;;;;4138004;28;20048;-49
2022/01/09 07:18:30;;;;;;;5.47;2.67;;;28.60;67.50;;;;;;4149224;28;20844;-53
2022/01/09 07:20:32;;;;;;;8.27;3.08;;;28.60;67.50;;;;;;4141312;28;21675;-49
2022/01/09 07:22:34;;;;;;;7.73;2.80;;;28.60;67.40;;;;;;4138247;28;20156;-46
2022/01/09 07:24:37;;;;;;;5.78;2.75;;;28.60;67.40;;;;;;4143836;28;20033;-51
2022/01/09 07:26:39;;;;;;;7.55;2.88;;;28.50;67.40;;;;;;4143972;28;22274;-51
2022/01/09 07:28:41;;;;;;;6.20;2.40;;;28.60;67.50;;;;;;4138122;28;20067;-50
2022/01/09 07:30:43;;;;;;;5.27;2.70;;;28.60;67.50;;;;;;4138368;28;20021;-49
2022/01/09 07:32:45;;;;;;;3.88;2.58;;;28.60;67.50;;;;;;4145846;28;20526;-48
2022/01/09 07:34:47;;;;;;;4.40;2.20;;;28.60;67.40;;;;;;4136124;28;20045;-49
2022/01/09 07:36:50;;;;;;;5.43;2.47;;;28.60;67.50;;;;;;4136269;28;20147;-49
2022/01/09 07:38:53;;;;;;;4.85;2.30;;;28.60;67.20;;;;;;4146314;28;20033;-48
2022/01/09 07:40:54;;;;;;;;;;;28.60;67.50;;;;;;4141604;28;21418;-48
2022/01/09 07:42:56;;;;;;;4.50;2.08;;;28.60;67.50;;;;;;4136888;28;19927;-47
2022/01/09 07:45:00;;;;;;;4.53;2.27;;;28.60;67.50;;;;;;4145247;28;20766;-50
2022/01/09 07:47:02;;;;;;;7.13;2.50;;;28.60;67.50;;;;;;4152545;28;20055;-48
2022/01/09 07:49:04;;;;;;;5.95;2.50;;;28.60;67.50;;;;;;4142174;28;20028;-49
2022/01/09 07:51:07;;;;;;;4.50;2.33;;;28.50;67.40;;;;;;4143763;28;20774;-51
2022/01/09 07:53:10;;;;;;;5.40;2.35;;;28.50;67.40;;;;;;4149388;28;20078;-50
2022/01/09 07:55:14;;;;;;;5.70;2.08;;;28.50;67.40;;;;;;4145259;28;20404;-53
2022/01/09 07:57:17;;;;;;;7.43;2.80;;;28.50;67.50;;;;;;4135861;28;20495;-45
2022/01/09 07:59:19;;;;;;;3.78;2.00;;;28.60;67.60;;;;;;4137257;28;20433;-50
2022/01/09 08:01:21;;;;;;;5.77;2.13;;;28.50;67.60;;;;;;4143087;28;20064;-50
2022/01/09 08:03:23;;;;;;;4.63;2.03;;;28.50;67.70;;;;;;4133120;28;20315;-51
2022/01/09 08:05:25;;;;;;;4.43;2.42;;;28.50;67.70;;;;;;4134761;28;20044;-49
2022/01/09 08:07:28;;;;;;;3.03;2.08;;;28.50;67.70;;;;;;4144371;28;20036;-47
2022/01/09 08:09:30;;;;;;;6.65;2.40;;;28.50;67.70;;;;;;4136255;28;21723;-46
2022/01/09 08:11:32;;;;;;;5.57;2.42;;;28.50;67.70;;;;;;4132220;28;20977;-46
2022/01/09 08:13:35;;;;;;;4.93;2.22;;;28.50;67.70;;;;;;4130092;28;20664;-50
2022/01/09 08:15:37;;;;;;;4.88;2.33;;;28.50;67.70;;;;;;4132724;28;20669;-50
2022/01/09 08:17:42;;;;;;;3.72;2.10;;;28.60;67.70;;;;;;4123467;28;20036;-46
2022/01/09 08:19:44;;;;;;;5.63;2.35;;;28.50;67.70;;;;;;4124932;28;20112;-49
2022/01/09 08:21:46;;;;;;;4.67;2.07;;;28.50;67.80;;;;;;4132977;28;20500;-49
2022/01/09 08:23:51;;;;;;;4.38;2.47;;;28.50;67.80;;;;;;4127925;28;20294;-47
2022/01/09 08:25:53;;;;;;;4.60;2.10;;;28.50;67.80;;;;;;4121943;28;20045;-48
2022/01/09 08:27:55;;;;;;;4.65;2.20;;;28.50;67.80;;;;;;4124481;28;20800;-53
2022/01/09 08:29:57;;;;;;;3.47;1.70;;;28.50;67.80;;;;;;4133126;28;20072;-46
2022/01/09 08:32:00;;;;;;;6.03;2.00;;;28.50;67.80;;;;;;4123472;28;20041;-47
2022/01/09 08:34:02;;;;;;;3.10;1.85;;;28.50;67.80;;;;;;4121089;28;20397;-48
2022/01/09 08:36:04;;;;;;;5.37;2.30;;;28.50;67.90;;;;;;4133724;28;20033;-47
2022/01/09 08:38:06;;;;;;;6.85;2.15;;;28.50;67.90;;;;;;4121935;28;20508;-49
2022/01/09 08:40:13;;;;;;;7.67;2.10;;;28.50;67.80;;;;;;4126205;28;20134;-46
2022/01/09 08:42:15;;;;;;;6.43;2.45;;;28.50;67.90;;;;;;4122028;28;20059;-49
2022/01/09 08:44:17;;;;;;;8.07;2.22;;;28.50;67.90;;;;;;4136170;28;20037;-48
2022/01/09 08:46:20;;;;;;;5.00;2.15;;;28.50;67.90;;;;;;4123150;28;20055;-48
2022/01/09 08:48:22;;;;;;;4.85;2.00;;;28.50;67.90;;;;;;4125925;28;20033;-49
2022/01/09 08:50:24;;;;;;;2.78;1.80;;;28.50;68.00;;;;;;4135118;28;20409;-50
2022/01/09 08:52:26;;;;;;;5.57;2.28;;;28.50;68.10;;;;;;4128333;28;22041;-49
2022/01/09 08:54:29;;;;;;;4.45;2.10;;;28.50;68.10;;;;;;4126963;28;20477;-52
2022/01/09 08:56:32;;;;;;;4.88;2.10;;;28.50;68.10;;;;;;4125908;28;20033;-45
2022/01/09 08:58:34;;;;;;;4.50;2.22;;;28.50;68.20;;;;;;4133790;28;20042;-50
2022/01/09 09:00:36;;;;;;;4.25;2.00;;;28.50;68.20;;;;;;4118983;28;20479;-48
2022/01/09 09:02:41;;;;;;;7.78;2.35;;;28.50;68.30;;;;;;4101946;28;20052;-51
2022/01/09 09:04:44;;;;;;;5.32;2.17;;;28.50;68.40;;;;;;4128096;28;20032;-50
2022/01/09 09:06:45;;;;;;;;;;;28.50;68.70;;;;;;4130028;28;20149;-53
2022/01/09 09:08:47;;;;;;;6.47;2.33;;;28.50;69.10;;;;;;4124712;28;20103;-45
2022/01/09 09:10:50;;;;;;;9.60;2.53;;;28.50;69.50;;;;;;4129355;28;20550;-50
2022/01/09 09:12:54;;;;;;;5.93;2.20;;;28.50;69.50;;;;;;4134891;28;20040;-49
2022/01/09 09:14:56;;;;;;;4.72;1.98;;;28.50;69.60;;;;;;4127102;28;20120;-49
2022/01/09 09:16:58;;;;;;;4.90;2.10;;;28.50;69.70;;;;;;4124660;28;20394;-51
2022/01/09 09:19:01;;;;;;;5.07;2.10;;;28.50;69.50;;;;;;4137094;28;20040;-51
2022/01/09 09:21:04;;;;;;;4.10;2.10;;;28.50;69.70;;;;;;4128274;28;20313;-50
2022/01/09 09:23:06;;;;;;;4.97;2.08;;;28.50;69.60;;;;;;4125573;28;20041;-52
2022/01/09 09:25:09;;;;;;;3.37;1.80;;;28.50;69.50;;;;;;4127897;28;20037;-53
2022/01/09 09:27:11;;;;;;;3.97;2.30;;;28.50;69.50;;;;;;4134752;28;20041;-47
2022/01/09 09:29:13;;;;;;;4.22;2.08;;;28.50;69.50;;;;;;4125469;28;20033;-49
2022/01/09 09:31:16;;;;;;;4.80;2.10;;;28.50;69.50;;;;;;4125825;28;20041;-51
2022/01/09 09:33:19;;;;;;;4.78;1.98;;;28.50;69.50;;;;;;4132911;28;20037;-52
2022/01/09 09:35:21;;;;;;;4.55;2.17;;;28.50;69.60;;;;;;4128011;28;20045;-50
2022/01/09 09:37:26;;;;;;;4.68;2.30;;;28.50;69.70;;;;;;4126316;28;20037;-54
2022/01/09 09:39:28;;;;;;;7.00;2.50;;;28.50;69.70;;;;;;4126153;28;20488;-51
2022/01/09 09:41:31;;;;;;;5.53;2.15;;;28.50;69.60;;;;;;4135131;28;20048;-52
2022/01/09 09:43:33;;;;;;;3.63;1.90;;;28.50;69.70;;;;;;4123907;28;20047;-52
2022/01/09 09:45:35;;;;;;;3.80;1.90;;;28.60;69.80;;;;;;4124315;28;20037;-50
2022/01/09 09:47:39;;;;;;;5.18;2.28;;;28.50;69.70;;;;;;4133398;28;20044;-49
2022/01/09 09:49:42;;;;;;;4.55;2.08;;;28.50;69.80;;;;;;4131549;28;21582;-48
2022/01/09 09:51:44;;;;;;;5.15;1.90;;;28.50;69.70;;;;;;4125162;28;20432;-50
2022/01/09 09:53:47;;;;;;;5.03;2.42;;;28.50;69.70;;;;;;4125555;28;20060;-49
2022/01/09 09:55:51;;;;;;;4.35;2.05;;;28.50;69.70;;;;;;4132672;28;20060;-48
2022/01/09 09:57:54;;;;;;;6.20;2.80;;;28.50;69.80;;;;;;4125741;28;21169;-51
2022/01/09 10:00:08;;;;;;;4.97;2.20;;;28.50;69.80;;;;;;4123099;28;20028;-48
2022/01/09 10:02:17;;;;;;;3.13;2.05;;;28.50;69.80;;;;;;4124137;28;20428;-52
2022/01/09 10:04:20;;;;;;;6.75;2.47;;;28.50;69.70;;;;;;4124707;28;20048;-51
2022/01/09 10:06:46;;;;;;;6.68;2.30;;;28.50;69.70;;;;;;4129990;28;20123;-49
2022/01/09 10:08:50;;;;;;;5.18;2.17;;;28.50;69.70;;;;;;4125112;28;20040;-50
2022/01/09 10:10:52;;;;;;;4.88;2.00;;;28.50;69.70;;;;;;4123859;28;20048;-48
2022/01/09 10:13:06;;;;;;;4.67;1.97;;;28.50;69.80;;;;;;4136165;28;20041;-48
2022/01/09 10:15:11;;;;;;;4.43;1.80;;;28.50;69.80;;;;;;4135946;28;20106;-50
2022/01/09 10:17:16;;;;;;;5.00;2.05;;;28.50;69.80;;;;;;4133387;28;20192;-50
2022/01/09 10:19:18;;;;;;;5.07;2.30;;;28.50;69.70;;;;;;4127545;28;20032;-52
2022/01/09 10:21:27;;;;;;;3.15;2.28;;;28.50;69.50;;;;;;4127508;28;20044;-48
2022/01/09 10:23:29;;;;;;;3.38;1.65;;;28.50;69.90;;;;;;4129605;28;20033;-48
2022/01/09 10:25:37;;;;;;;5.00;1.93;;;28.50;69.20;;;;;;4136160;28;20040;-51
2022/01/09 10:27:39;;;;;;;4.72;2.30;;;28.50;69.60;;;;;;4132137;28;21057;-48
2022/01/09 10:29:49;;;;;;;5.60;2.17;;;28.50;70.00;;;;;;4124723;28;20403;-50
2022/01/09 10:31:51;;;;;;;6.70;2.40;;;28.50;70.40;;;;;;4128692;28;20133;-48
2022/01/09 10:34:05;;;;;;;4.33;2.07;;;28.50;70.70;;;;;;4131054;28;20071;-52
2022/01/09 10:36:09;;;;;;;4.93;1.95;;;28.50;70.70;;;;;;4132070;28;20037;-52
2022/01/09 10:38:15;;;;;;;4.55;2.08;;;28.50;70.90;;;;;;4135687;28;20060;-51
2022/01/09 10:40:29;;;;;;;3.53;2.25;;;28.50;71.00;;;;;;4130622;28;20523;-53
2022/01/09 10:42:32;;;;;;;3.58;2.10;;;28.50;71.10;;;;;;4130439;28;22189;-48
2022/01/09 10:44:38;;;;;;;4.95;2.33;;;28.50;71.20;;;;;;4126874;28;20103;-52
2022/01/09 10:46:40;;;;;;;4.35;1.95;;;28.50;71.20;;;;;;4126703;28;20635;-45
2022/01/09 10:48:44;;;;;;;6.18;2.47;;;28.60;71.20;;;;;;4135528;28;20249;-49